Richfield, Ohio
Current Conditions -  °F | °C
As of 4:54 PM on Wednesday 22 Oct 2014 (Local Time) from KAKR Reporting Station
Overcast Overcast  
Wind Chill: 51°   Ceiling: 2800
Heat Index: 51°   Visibility: 10mi
Dew Point: 43°   Wind: 7mph
Humidity: 74%   Direction: 360°N
Pressure: 30.22"   Gusts: NA
Location:  41.24°N, 81.64°W
Report Text: KAKR 222054Z AUTO 36006KT 10SM FEW022 BKN028 OVC035 11/06 A3022 RMK AO2 SLP236 T01060061 56002
Loading
Personal Weather Stations






























Interactive Weather Map
Tropical Storm Tracking
New forecast layout! Learn more

10-Day Weather Forecast

Advertisements
Track Severe Weather on mobile